createdAt,value
2023-01-29T00:00:10.063Z,23.92
2023-01-29T00:02:37.649Z,24.77
2023-01-29T00:05:25.482Z,22.48
2023-01-29T00:07:53.637Z,27.02
2023-01-29T00:10:20.776Z,22.50
2023-01-29T00:12:47.894Z,21.92
2023-01-29T00:15:15.043Z,21.45
2023-01-29T00:17:42.206Z,21.13
2023-01-29T00:20:10.433Z,21.50
2023-01-29T00:22:37.559Z,20.75
2023-01-29T00:25:05.249Z,22.17
2023-01-29T00:27:32.422Z,22.25
2023-01-29T00:30:16.345Z,22.10
2023-01-29T00:32:43.690Z,21.95
2023-01-29T00:35:11.766Z,22.30
2023-01-29T00:37:39.062Z,22.08
2023-01-29T00:40:06.997Z,21.83
2023-01-29T00:42:52.832Z,21.80
2023-01-29T00:45:20.042Z,23.83
2023-01-29T00:47:47.259Z,24.58
2023-01-29T00:50:14.759Z,21.88
2023-01-29T00:52:42.149Z,22.23
2023-01-29T00:55:11.678Z,21.85
2023-01-29T00:57:39.163Z,22.48
2023-01-29T01:00:11.705Z,22.98
2023-01-29T01:02:57.735Z,21.70
2023-01-29T01:05:25.228Z,22.17
2023-01-29T01:07:55.945Z,21.70
2023-01-29T01:10:29.194Z,21.92
2023-01-29T01:13:04.721Z,22.67
2023-01-29T01:15:37.566Z,22.40
2023-01-29T01:20:34.973Z,21.13
2023-01-29T01:23:02.682Z,21.35
2023-01-29T01:25:29.839Z,23.90
2023-01-29T01:30:26.727Z,22.58
2023-01-29T01:32:54.937Z,22.48
2023-01-29T01:35:22.108Z,21.98
2023-01-29T01:37:49.272Z,22.80
2023-01-29T01:40:24.610Z,23.90
2023-01-29T01:42:58.631Z,22.75
2023-01-29T01:45:29.706Z,21.80
2023-01-29T01:48:18.128Z,22.13
2023-01-29T01:50:53.628Z,22.55
2023-01-29T01:53:39.908Z,22.95
2023-01-29T01:56:14.760Z,23.13
2023-01-29T01:58:52.222Z,22.65
2023-01-29T02:01:30.828Z,23.55
2023-01-29T02:04:24.433Z,21.95
2023-01-29T02:07:14.027Z,23.45
2023-01-29T02:09:52.493Z,22.35
2023-01-29T02:12:21.494Z,23.30
2023-01-29T02:14:48.823Z,23.88
2023-01-29T02:17:19.528Z,22.98
2023-01-29T02:20:08.425Z,21.25
2023-01-29T02:22:59.135Z,23.58
2023-01-29T02:25:44.815Z,22.05
2023-01-29T02:28:41.054Z,21.30
2023-01-29T02:31:40.958Z,22.40
2023-01-29T02:34:54.898Z,22.23
2023-01-29T02:40:24.771Z,21.40
2023-01-29T02:43:16.048Z,23.08
2023-01-29T02:45:58.389Z,22.90
2023-01-29T02:48:39.870Z,23.25
2023-01-29T02:51:39.914Z,25.15
2023-01-29T02:54:33.492Z,23.50
2023-01-29T02:57:29.062Z,23.20
2023-01-29T03:00:06.936Z,23.40
2023-01-29T03:02:58.448Z,23.25
2023-01-29T03:05:35.257Z,22.92
2023-01-29T03:08:10.727Z,22.70
2023-01-29T03:10:51.057Z,22.77
2023-01-29T03:13:49.446Z,23.75
2023-01-29T03:16:31.133Z,22.23
2023-01-29T03:19:38.642Z,22.75
2023-01-29T03:22:10.731Z,22.73
2023-01-29T03:25:05.228Z,22.73
2023-01-29T03:28:08.601Z,23.20
2023-01-29T03:31:02.333Z,23.08
2023-01-29T03:33:45.521Z,22.70
2023-01-29T03:36:45.202Z,21.38
2023-01-29T03:39:15.792Z,22.98
2023-01-29T03:42:02.567Z,23.70
2023-01-29T03:45:07.706Z,23.48
2023-01-29T03:48:03.140Z,24.13
2023-01-29T03:50:55.992Z,24.30
2023-01-29T03:53:37.877Z,24.10
2023-01-29T03:56:31.530Z,23.90
2023-01-29T03:59:12.984Z,24.77
2023-01-29T04:01:51.784Z,26.02
2023-01-29T04:04:37.047Z,26.67
2023-01-29T04:07:26.196Z,27.50
2023-01-29T04:10:22.215Z,27.45
2023-01-29T04:12:58.453Z,26.85
2023-01-29T04:15:31.882Z,27.35
2023-01-29T04:17:59.768Z,26.48
2023-01-29T04:20:26.922Z,27.15
2023-01-29T04:22:54.098Z,26.42
2023-01-29T04:25:32.004Z,25.98
2023-01-29T04:28:12.536Z,25.95
2023-01-29T04:31:00.402Z,25.60
2023-01-29T04:34:07.922Z,25.65
2023-01-29T04:37:30.297Z,24.83
2023-01-29T04:40:19.048Z,25.15
2023-01-29T04:43:08.422Z,25.33
2023-01-29T04:46:20.591Z,25.25
2023-01-29T04:49:15.866Z,25.15
2023-01-29T04:52:21.899Z,26.65
2023-01-29T04:55:04.208Z,25.65
2023-01-29T04:57:50.839Z,27.57
2023-01-29T05:00:32.990Z,34.25
2023-01-29T05:03:02.024Z,25.70
2023-01-29T05:05:30.847Z,25.15
2023-01-29T05:07:59.455Z,25.52
2023-01-29T05:10:27.819Z,25.15
2023-01-29T05:13:03.255Z,25.63
2023-01-29T05:15:39.131Z,25.55
2023-01-29T05:18:09.054Z,26.35
2023-01-29T05:20:40.475Z,26.10
2023-01-29T05:23:25.949Z,25.73
2023-01-29T05:25:53.277Z,25.00
2023-01-29T05:28:20.499Z,25.23
2023-01-29T05:30:51.379Z,24.88
2023-01-29T05:33:24.463Z,26.27
2023-01-29T05:35:51.897Z,25.05
2023-01-29T05:38:20.375Z,30.67
2023-01-29T05:40:48.073Z,25.92
2023-01-29T05:43:21.900Z,25.27
2023-01-29T05:45:58.092Z,25.60
2023-01-29T05:48:28.915Z,25.33
2023-01-29T05:51:04.830Z,25.55
2023-01-29T05:53:33.741Z,26.80
2023-01-29T05:56:03.123Z,26.30
2023-01-29T05:58:31.816Z,26.08
2023-01-29T06:01:07.353Z,25.35
2023-01-29T06:03:34.508Z,26.05
2023-01-29T06:06:02.567Z,24.20
2023-01-29T06:08:29.806Z,24.98
2023-01-29T06:10:56.949Z,25.50
2023-01-29T06:13:24.122Z,25.88
2023-01-29T06:15:51.294Z,26.30
2023-01-29T06:18:18.465Z,25.40
2023-01-29T06:20:45.681Z,25.38
2023-01-29T06:23:12.843Z,27.80
2023-01-29T06:25:40.015Z,25.80
2023-01-29T06:28:07.159Z,24.77
2023-01-29T06:30:34.313Z,25.42
2023-01-29T06:33:01.929Z,25.20
2023-01-29T06:35:29.121Z,25.75
2023-01-29T06:37:56.511Z,25.85
2023-01-29T06:40:23.663Z,24.75
2023-01-29T06:42:50.898Z,26.25
2023-01-29T06:45:18.075Z,25.15
2023-01-29T06:47:45.198Z,25.92
2023-01-29T06:50:12.380Z,24.70
2023-01-29T06:52:39.562Z,25.83
2023-01-29T06:55:07.375Z,25.77
2023-01-29T06:57:34.534Z,24.58
2023-01-29T07:00:01.773Z,25.45
2023-01-29T07:02:29.020Z,24.75
2023-01-29T07:04:56.270Z,24.95
2023-01-29T07:07:23.417Z,25.05
2023-01-29T07:09:50.546Z,26.08
2023-01-29T07:12:17.663Z,26.85
2023-01-29T07:14:44.859Z,26.63
2023-01-29T07:17:12.032Z,27.00
2023-01-29T07:19:40.581Z,26.88
2023-01-29T07:22:07.743Z,27.63
2023-01-29T07:24:34.933Z,27.13
2023-01-29T07:27:02.129Z,26.45
2023-01-29T07:29:29.293Z,27.33
2023-01-29T07:31:56.673Z,26.13
2023-01-29T07:34:23.950Z,26.25
2023-01-29T07:36:53.953Z,26.73
2023-01-29T07:39:21.091Z,25.60
2023-01-29T07:41:48.328Z,26.33
2023-01-29T07:44:15.882Z,26.10
2023-01-29T07:46:43.367Z,26.00
2023-01-29T07:49:10.843Z,25.15
2023-01-29T07:51:38.022Z,25.92
2023-01-29T07:54:05.337Z,26.13
2023-01-29T07:56:32.495Z,26.77
2023-01-29T07:58:59.649Z,26.48
2023-01-29T08:01:26.920Z,25.83
2023-01-29T08:03:54.167Z,26.27
2023-01-29T08:06:21.331Z,25.77
2023-01-29T08:08:48.751Z,26.35
2023-01-29T08:11:15.980Z,25.73
2023-01-29T08:13:43.175Z,26.33
2023-01-29T08:16:10.525Z,25.45
2023-01-29T08:18:38.610Z,27.58
2023-01-29T08:21:05.911Z,27.83
2023-01-29T08:23:33.091Z,26.92
2023-01-29T08:26:03.337Z,27.27
2023-01-29T08:28:30.725Z,26.92
2023-01-29T08:30:57.916Z,27.17
2023-01-29T08:33:38.027Z,27.70
2023-01-29T08:36:07.324Z,28.13
2023-01-29T08:38:34.474Z,27.90
2023-01-29T08:41:01.708Z,31.70
2023-01-29T08:43:28.837Z,29.15
2023-01-29T08:45:56.018Z,28.15
2023-01-29T08:48:23.944Z,28.60
2023-01-29T08:50:51.639Z,29.17
2023-01-29T08:53:24.222Z,28.90
2023-01-29T08:55:52.356Z,29.38
2023-01-29T08:58:20.446Z,30.48
2023-01-29T09:00:47.804Z,30.42
2023-01-29T09:03:15.367Z,31.13
2023-01-29T09:05:42.535Z,31.30
2023-01-29T09:08:10.199Z,29.63
2023-01-29T09:10:37.409Z,32.63
2023-01-29T09:13:04.994Z,32.58
2023-01-29T09:15:32.192Z,32.45
2023-01-29T09:18:04.278Z,32.35
2023-01-29T09:20:31.755Z,31.23
2023-01-29T09:22:59.191Z,34.53
2023-01-29T09:25:26.369Z,33.92
2023-01-29T09:27:54.239Z,35.22
2023-01-29T09:30:21.722Z,34.92
2023-01-29T09:32:53.542Z,35.17
2023-01-29T09:35:24.454Z,34.83
2023-01-29T09:37:52.567Z,35.53
2023-01-29T09:40:34.466Z,34.80
2023-01-29T09:43:17.851Z,35.20
2023-01-29T09:46:17.367Z,34.72
2023-01-29T09:48:48.224Z,35.10
2023-01-29T09:51:30.448Z,36.53
2023-01-29T09:54:16.399Z,36.03
2023-01-29T09:56:46.406Z,37.13
2023-01-29T09:59:18.973Z,35.30
2023-01-29T10:02:10.944Z,35.63
2023-01-29T10:05:05.996Z,36.13
2023-01-29T10:08:25.665Z,36.05
2023-01-29T10:11:12.861Z,34.55
2023-01-29T10:14:11.467Z,36.80
2023-01-29T10:17:22.919Z,35.17
2023-01-29T10:20:31.747Z,37.03
2023-01-29T10:23:25.028Z,36.17
2023-01-29T10:25:53.470Z,33.97
2023-01-29T10:28:39.521Z,32.47
2023-01-29T10:31:13.405Z,34.42
2023-01-29T10:34:02.719Z,34.20
2023-01-29T10:36:46.350Z,34.33
2023-01-29T10:39:25.267Z,33.50
2023-01-29T10:42:20.526Z,33.03
2023-01-29T10:45:21.700Z,33.33
2023-01-29T10:48:21.565Z,33.95
2023-01-29T10:51:01.794Z,35.28
2023-01-29T10:54:03.953Z,36.28
2023-01-29T10:56:44.239Z,32.70
2023-01-29T10:59:39.424Z,34.10
2023-01-29T11:02:21.164Z,32.63
2023-01-29T11:04:48.907Z,31.75
2023-01-29T11:07:21.347Z,33.45
2023-01-29T11:10:21.823Z,38.83
2023-01-29T11:12:50.189Z,46.28
2023-01-29T11:15:28.071Z,35.25
2023-01-29T11:18:05.594Z,34.22
2023-01-29T11:20:34.066Z,32.33
2023-01-29T11:23:01.227Z,43.00
2023-01-29T11:25:29.864Z,35.65
2023-01-29T11:28:02.058Z,34.28
2023-01-29T11:30:35.539Z,37.80
2023-01-29T11:33:08.151Z,33.78
2023-01-29T11:35:36.639Z,33.40
2023-01-29T11:38:27.625Z,34.03
2023-01-29T11:41:07.862Z,33.38
2023-01-29T11:43:35.087Z,37.53
2023-01-29T11:46:13.766Z,40.78
2023-01-29T11:48:51.332Z,35.40
2023-01-29T11:51:28.576Z,32.38
2023-01-29T11:54:02.784Z,32.83
2023-01-29T11:56:41.689Z,37.65
2023-01-29T11:59:37.377Z,32.53
2023-01-29T12:02:31.522Z,32.25
2023-01-29T12:05:32.434Z,32.33
2023-01-29T12:08:02.311Z,36.58
2023-01-29T12:10:39.226Z,36.70
2023-01-29T12:13:10.585Z,45.25
2023-01-29T12:15:40.300Z,34.05
2023-01-29T12:18:30.378Z,34.78
2023-01-29T12:21:03.230Z,34.78
2023-01-29T12:23:59.218Z,41.50
2023-01-29T12:26:42.004Z,38.63
2023-01-29T12:29:49.420Z,33.30
2023-01-29T12:32:39.251Z,32.15
2023-01-29T12:35:28.097Z,33.60
2023-01-29T12:38:20.091Z,34.33
2023-01-29T12:40:55.151Z,32.60
2023-01-29T12:43:42.131Z,34.40
2023-01-29T12:46:38.505Z,31.27
2023-01-29T12:49:16.662Z,33.45
2023-01-29T12:52:07.045Z,33.60
2023-01-29T12:54:41.182Z,30.95
2023-01-29T12:57:21.869Z,30.13
2023-01-29T13:00:23.927Z,30.58
2023-01-29T13:03:04.290Z,28.58
2023-01-29T13:05:44.020Z,30.42
2023-01-29T13:08:40.031Z,31.63
2023-01-29T13:11:18.022Z,30.30
2023-01-29T13:13:54.672Z,31.15
2023-01-29T13:16:28.301Z,31.02
2023-01-29T13:19:05.096Z,30.80
2023-01-29T13:21:40.683Z,30.17
2023-01-29T13:24:23.545Z,30.30
2023-01-29T13:26:51.289Z,28.92
2023-01-29T13:29:29.292Z,31.33
2023-01-29T13:32:00.434Z,37.83
2023-01-29T13:34:37.684Z,32.85
2023-01-29T13:37:16.795Z,43.92
2023-01-29T13:39:51.947Z,56.15
2023-01-29T13:42:49.182Z,43.00
2023-01-29T13:45:25.803Z,34.05
2023-01-29T13:47:54.230Z,33.47
2023-01-29T13:50:37.205Z,30.38
2023-01-29T13:53:08.302Z,31.42
2023-01-29T13:55:39.276Z,30.70
2023-01-29T13:58:16.040Z,27.77
2023-01-29T14:00:43.062Z,28.60
2023-01-29T14:03:12.935Z,29.67
2023-01-29T14:05:57.916Z,29.48
2023-01-29T14:08:34.132Z,35.10
2023-01-29T14:11:13.493Z,27.60
2023-01-29T14:13:48.784Z,30.90
2023-01-29T14:16:34.870Z,27.10
2023-01-29T14:19:05.060Z,28.13
2023-01-29T14:21:37.692Z,26.17
2023-01-29T14:24:31.300Z,26.45
2023-01-29T14:26:59.327Z,36.15
2023-01-29T14:29:35.466Z,27.58
2023-01-29T14:32:22.032Z,27.92
2023-01-29T14:34:56.107Z,27.67
2023-01-29T14:37:41.746Z,29.35
2023-01-29T14:40:11.799Z,27.00
2023-01-29T14:42:57.854Z,28.25
2023-01-29T14:45:35.361Z,28.70
2023-01-29T14:48:11.307Z,26.05
2023-01-29T14:50:48.422Z,28.90
2023-01-29T14:53:27.833Z,29.60
2023-01-29T14:56:09.957Z,30.77
2023-01-29T14:58:52.311Z,27.85
2023-01-29T15:01:39.506Z,30.67
2023-01-29T15:04:19.128Z,29.00
2023-01-29T15:07:01.123Z,26.80
2023-01-29T15:09:51.322Z,27.08
2023-01-29T15:12:49.298Z,25.80
2023-01-29T15:15:41.082Z,25.10
2023-01-29T15:18:16.197Z,25.42
2023-01-29T15:20:44.316Z,25.25
2023-01-29T15:23:32.558Z,26.48
2023-01-29T15:26:04.338Z,25.10
2023-01-29T15:28:35.169Z,27.35
2023-01-29T15:31:11.961Z,25.60
2023-01-29T15:33:44.982Z,25.83
2023-01-29T15:39:04.112Z,28.05
2023-01-29T15:41:32.061Z,27.10
2023-01-29T15:44:01.078Z,29.02
2023-01-29T15:46:36.240Z,27.55
2023-01-29T15:49:11.537Z,26.02
2023-01-29T15:51:39.343Z,27.63
2023-01-29T15:54:15.909Z,26.48
2023-01-29T15:56:51.317Z,27.42
2023-01-29T15:59:25.900Z,28.08
2023-01-29T16:01:54.295Z,27.73
2023-01-29T16:04:30.339Z,31.88
2023-01-29T16:07:00.410Z,27.15
2023-01-29T16:09:29.765Z,27.98
2023-01-29T16:11:59.149Z,27.17
2023-01-29T16:14:28.476Z,27.00
2023-01-29T16:16:55.865Z,27.33
2023-01-29T16:19:27.098Z,29.08
2023-01-29T16:22:05.784Z,28.50
2023-01-29T16:24:37.192Z,35.85
2023-01-29T16:27:13.928Z,30.88
2023-01-29T16:29:41.612Z,28.73
2023-01-29T16:32:12.312Z,29.20
2023-01-29T16:34:44.433Z,30.02
2023-01-29T16:37:23.975Z,31.20
2023-01-29T16:39:52.760Z,30.40
2023-01-29T16:42:28.546Z,31.17
2023-01-29T16:45:05.351Z,31.60
2023-01-29T16:47:43.778Z,32.78
2023-01-29T16:50:36.135Z,31.73
2023-01-29T16:53:19.001Z,38.60
2023-01-29T16:55:49.661Z,32.55
2023-01-29T16:58:21.453Z,34.53
2023-01-29T17:01:05.062Z,31.65
2023-01-29T17:03:34.553Z,40.05
2023-01-29T17:06:13.662Z,38.05
2023-01-29T17:08:44.229Z,40.42
2023-01-29T17:11:24.951Z,38.58
2023-01-29T17:13:57.041Z,37.22
2023-01-29T17:16:35.533Z,33.53
2023-01-29T17:19:17.423Z,31.00
2023-01-29T17:21:44.652Z,31.55
2023-01-29T17:24:11.805Z,31.38
2023-01-29T17:26:39.777Z,31.00
2023-01-29T17:29:15.572Z,33.13
2023-01-29T17:31:43.781Z,30.65
2023-01-29T17:34:15.781Z,29.70
2023-01-29T17:36:44.391Z,29.07
2023-01-29T17:39:24.353Z,30.85
2023-01-29T17:41:55.524Z,28.45
2023-01-29T17:44:23.477Z,29.35
2023-01-29T17:46:50.841Z,28.10
2023-01-29T17:49:24.657Z,26.85
2023-01-29T17:51:54.171Z,32.83
2023-01-29T17:54:22.285Z,27.63
2023-01-29T17:56:50.657Z,31.15
2023-01-29T17:59:25.050Z,27.38
2023-01-29T18:01:53.246Z,26.40
2023-01-29T18:04:21.376Z,25.52
2023-01-29T18:06:50.980Z,29.40
2023-01-29T18:09:20.574Z,28.38
2023-01-29T18:11:49.773Z,28.23
2023-01-29T18:14:17.702Z,28.27
2023-01-29T18:16:46.012Z,27.38
2023-01-29T18:19:22.721Z,27.10
2023-01-29T18:21:50.784Z,29.40
2023-01-29T18:24:20.308Z,26.92
2023-01-29T18:26:49.310Z,27.20
2023-01-29T18:29:16.573Z,29.50
2023-01-29T18:31:43.799Z,27.25
2023-01-29T18:34:10.980Z,30.60
2023-01-29T18:36:38.427Z,28.02
2023-01-29T18:39:05.617Z,25.30
2023-01-29T18:41:33.662Z,26.15
2023-01-29T18:44:01.566Z,29.92
2023-01-29T18:46:28.831Z,30.90
2023-01-29T18:48:56.386Z,26.83
2023-01-29T18:51:23.521Z,26.88
2023-01-29T18:53:52.104Z,27.00
2023-01-29T18:56:20.772Z,28.92
2023-01-29T18:58:52.148Z,28.77
2023-01-29T19:01:23.698Z,26.00
2023-01-29T19:03:50.967Z,27.60
2023-01-29T19:06:18.470Z,26.73
2023-01-29T19:08:47.307Z,25.58
2023-01-29T19:11:17.613Z,26.30
2023-01-29T19:13:45.998Z,28.63
2023-01-29T19:16:13.999Z,25.50
2023-01-29T19:18:43.618Z,26.13
2023-01-29T19:21:14.833Z,26.27
2023-01-29T19:23:43.695Z,25.80
2023-01-29T19:26:11.547Z,27.30
2023-01-29T19:28:39.463Z,28.15
2023-01-29T19:31:06.734Z,26.17
2023-01-29T19:33:33.971Z,27.10
2023-01-29T19:36:01.872Z,29.55
2023-01-29T19:38:29.122Z,31.08
2023-01-29T19:40:56.342Z,26.05
2023-01-29T19:43:23.779Z,23.70
2023-01-29T19:45:58.908Z,32.33
2023-01-29T19:48:27.357Z,22.70
2023-01-29T19:51:01.394Z,24.88
2023-01-29T19:53:29.310Z,23.33
2023-01-29T19:56:05.749Z,22.85
2023-01-29T19:58:34.465Z,22.00
2023-01-29T20:01:13.791Z,22.42
2023-01-29T20:03:42.047Z,23.77
2023-01-29T20:06:09.668Z,21.80
2023-01-29T20:08:36.947Z,22.00
2023-01-29T20:11:05.572Z,23.45
2023-01-29T20:13:33.536Z,21.75
2023-01-29T20:16:03.409Z,20.45
2023-01-29T20:18:31.418Z,21.88
2023-01-29T20:20:59.553Z,22.00
2023-01-29T20:23:37.208Z,20.45
2023-01-29T20:26:13.104Z,20.98
2023-01-29T20:28:40.720Z,20.67
2023-01-29T20:31:09.655Z,20.50
2023-01-29T20:33:39.202Z,20.05
2023-01-29T20:36:10.204Z,21.50
2023-01-29T20:38:38.087Z,20.20
2023-01-29T20:41:12.528Z,20.83
2023-01-29T20:43:40.416Z,21.90
2023-01-29T20:46:08.761Z,22.00
2023-01-29T20:48:36.587Z,21.33
2023-01-29T20:51:15.608Z,20.60
2023-01-29T20:53:45.522Z,21.45
2023-01-29T20:56:16.574Z,20.48
2023-01-29T20:58:46.504Z,21.38
2023-01-29T21:01:17.705Z,20.38
2023-01-29T21:03:46.252Z,20.63
2023-01-29T21:06:14.324Z,19.75
2023-01-29T21:08:41.948Z,20.73
2023-01-29T21:11:10.484Z,21.55
2023-01-29T21:13:37.915Z,18.67
2023-01-29T21:16:05.766Z,19.00
2023-01-29T21:18:33.156Z,18.55
2023-01-29T21:21:00.391Z,18.33
2023-01-29T21:23:27.569Z,18.52
2023-01-29T21:26:05.162Z,17.75
2023-01-29T21:28:33.037Z,18.33
2023-01-29T21:31:10.963Z,17.95
2023-01-29T21:33:38.398Z,18.70
2023-01-29T21:36:06.741Z,18.13
2023-01-29T21:38:33.994Z,19.38
2023-01-29T21:41:08.691Z,19.13
2023-01-29T21:43:36.649Z,19.42
2023-01-29T21:46:13.291Z,19.13
2023-01-29T21:48:40.559Z,18.85
2023-01-29T21:51:08.132Z,19.23
2023-01-29T21:53:36.651Z,17.23
2023-01-29T21:56:05.647Z,19.25
2023-01-29T21:58:33.427Z,19.35
2023-01-29T22:01:18.461Z,20.42
2023-01-29T22:03:47.914Z,19.30
2023-01-29T22:06:15.772Z,20.88
2023-01-29T22:08:43.185Z,19.85
2023-01-29T22:11:10.750Z,20.52
2023-01-29T22:13:38.139Z,19.90
2023-01-29T22:16:06.048Z,19.33
2023-01-29T22:18:33.964Z,22.25
2023-01-29T22:21:04.347Z,20.23
2023-01-29T22:23:31.950Z,18.83
2023-01-29T22:26:07.152Z,20.05
2023-01-29T22:28:34.394Z,19.02
2023-01-29T22:31:03.877Z,18.90
2023-01-29T22:33:33.174Z,19.80
2023-01-29T22:36:01.368Z,18.63
2023-01-29T22:38:29.165Z,20.65
2023-01-29T22:40:59.184Z,20.27
2023-01-29T22:43:26.356Z,20.52
2023-01-29T22:45:53.545Z,20.25
2023-01-29T22:48:23.534Z,19.85
2023-01-29T22:51:11.836Z,20.20
2023-01-29T22:53:48.822Z,19.85
2023-01-29T22:56:17.591Z,19.83
2023-01-29T22:58:45.108Z,20.65
2023-01-29T23:01:12.337Z,20.13
2023-01-29T23:03:39.651Z,19.98
2023-01-29T23:06:06.912Z,20.67
2023-01-29T23:08:34.102Z,19.95
2023-01-29T23:11:15.357Z,21.00
2023-01-29T23:13:51.998Z,21.38
2023-01-29T23:16:26.952Z,21.70
2023-01-29T23:18:56.463Z,21.38
2023-01-29T23:21:25.639Z,21.10
2023-01-29T23:23:55.207Z,22.15
2023-01-29T23:26:40.867Z,21.70
2023-01-29T23:29:08.150Z,22.05
2023-01-29T23:31:35.432Z,21.65
2023-01-29T23:34:02.793Z,23.05
2023-01-29T23:36:30.120Z,21.85
2023-01-29T23:38:57.299Z,21.88
2023-01-29T23:41:24.600Z,21.80
2023-01-29T23:43:53.045Z,23.35
2023-01-29T23:46:20.274Z,24.25
2023-01-29T23:48:47.427Z,21.90
2023-01-29T23:51:14.540Z,22.38
2023-01-29T23:53:41.673Z,23.55
2023-01-29T23:56:10.634Z,23.10
2023-01-29T23:58:37.993Z,23.83
